• Join FlightAware (Why Join?)
  • Login
  • US Flag 
06:28AM EDT


 

Airport Tracker/Info


-or-


 

Live Flight TrackerFlight Track Log ✈ FDX1482 ✈ 02-May-2013 ✈ KMEM - KBWI

Flight Track Log - Related Links

Times and Time Zones

All times are in EDT time to prevent confusion due to time zone crossing. See the FDX1482 flight status page for this flight to view local times or setup timezone preferences in your user account.

Time Position Orientation Groundspeed Altitude Reporting Facility
EDT Latitude Longitude Course Direction KTS MPH feet Rate Location/Type
04:27AM 35.0167 -89.9667 180° South 155 178 1,500  Level KMEM
04:28AM 34.9833 -89.9667 180° South 202 232 3,400 3,000 Climbing KMEM
04:28AM 34.9333 -89.9167 141° Southeast 265 305 7,300 4,200 Climbing KMEM
04:30AM 34.9581 -89.7794 78° East 269 310 13,900 3,900 Climbing Memphis Center
04:31AM 35.0033 -89.6853 60° Northeast 294 338 17,500 2,880 Climbing Memphis Center
04:32AM 35.0467 -89.5808 63° Northeast 327 376 19,700 1,680 Climbing Memphis Center
04:33AM 35.0917 -89.4739 63° Northeast 363 418 20,900 1,920 Climbing Memphis Center
04:34AM 35.1511 -89.3386 62° Northeast 421 484 23,600 2,640 Climbing Memphis Center
04:35AM 35.2064 -89.2008 64° Northeast 448 516 26,200 2,400 Climbing Memphis Center
04:36AM 35.2592 -89.0525 66° East 466 536 28,500 2,340 Climbing Memphis Center
04:37AM 35.3139 -88.9017 66° East 476 548 30,900 420 Climbing Memphis Center
04:43AM 35.6360 -88.0010 66° East 35,000 300 Climbing FlightAware
04:44AM 35.6720 -87.8990 66° East 35,000  Level FlightAware
04:44AM 35.6990 -87.8220 67° East 35,000  Level FlightAware
04:45AM 35.7510 -87.6730 67° East 35,000  Level FlightAware
04:46AM 35.7870 -87.5720 66° East 35,000  Level FlightAware
04:46AM 35.8220 -87.4710 67° East 35,000  Level FlightAware
04:47AM 35.8590 -87.3610 67° East 35,000  Level FlightAware
04:48AM 35.8940 -87.2600 67° East 35,000  Level FlightAware
04:48AM 35.9270 -87.1620 67° East 35,000  Level FlightAware
04:49AM 35.9670 -87.0460 67° East 35,000  Level FlightAware
04:50AM 36.0020 -86.9450 67° East 35,000  Level FlightAware
04:50AM 36.0081 -86.9271 67° East 473 544 35,000  Level FlightAware ADS-B
04:50AM 36.0338 -86.8509 67° East 483 556 35,000  Level FlightAware ADS-B
04:51AM 36.0592 -86.7760 67° East 463 533 35,000  Level FlightAware ADS-B
04:51AM 36.0848 -86.7001 67° East 464 534 35,000  Level FlightAware ADS-B
04:52AM 36.1098 -86.6258 67° East 469 540 35,000  Level FlightAware ADS-B
04:53AM 36.1447 -86.5221 67° East 472 543 35,000  Level FlightAware ADS-B
04:53AM 36.1720 -86.4406 67° East 459 528 35,000  Level FlightAware ADS-B
04:54AM 36.1972 -86.3652 67° East 459 528 35,000  Level FlightAware ADS-B
04:54AM 36.2217 -86.2912 68° East 464 534 35,000  Level FlightAware ADS-B
04:55AM 36.2475 -86.2137 68° East 457 526 35,000  Level FlightAware ADS-B
04:55AM 36.2726 -86.1383 68° East 475 547 35,000  Level FlightAware ADS-B
04:56AM 36.2975 -86.0631 68° East 460 529 35,000  Level FlightAware ADS-B
04:57AM 36.3478 -85.9109 68° East 467 537 35,000  Level FlightAware ADS-B
04:57AM 36.3723 -85.8355 68° East 468 539 35,000  Level FlightAware ADS-B
04:58AM 36.3972 -85.7610 67° East 467 537 35,000  Level FlightAware ADS-B
04:58AM 36.4235 -85.6791 68° East 462 532 35,000  Level FlightAware ADS-B
04:59AM 36.4585 -85.5713 68° East 463 533 35,000  Level FlightAware ADS-B
05:00AM 36.4883 -85.4795 68° East 462 532 35,000  Level FlightAware ADS-B
05:00AM 36.5127 -85.4034 68° East 468 539 35,000  Level FlightAware ADS-B
05:01AM 36.5378 -85.3262 68° East 475 547 35,000  Level FlightAware ADS-B
05:01AM 36.5671 -85.2352 68° East 458 527 35,000  Level FlightAware ADS-B
05:02AM 36.5972 -85.1415 68° East 476 548 35,000  Level FlightAware ADS-B
05:02AM 36.6214 -85.0651 68° East 446 513 35,000  Level FlightAware ADS-B
05:03AM 36.6469 -84.9851 68° East 464 534 35,000  Level FlightAware ADS-B
05:04AM 36.6902 -84.8488 68° East 466 536 35,000  Level FlightAware ADS-B
05:04AM 36.7163 -84.7662 68° East 456 525 35,000  Level FlightAware ADS-B
05:05AM 36.7405 -84.6898 68° East 485 558 35,000  Level FlightAware ADS-B
05:06AM 36.7644 -84.6136 69° East 474 545 35,000  Level FlightAware ADS-B
05:06AM 36.7879 -84.5386 69° East 463 533 35,000  Level FlightAware ADS-B
05:07AM 36.8114 -84.4637 69° East 463 533 35,000  Level FlightAware ADS-B
05:07AM 36.8356 -84.3863 69° East 470 541 35,000  Level FlightAware ADS-B
05:08AM 36.8598 -84.3087 69° East 453 521 35,000  Level FlightAware ADS-B
05:08AM 36.8842 -84.2296 69° East 476 548 35,000  Level FlightAware ADS-B
05:09AM 36.9072 -84.1555 69° East 466 536 35,000  Level FlightAware ADS-B
05:09AM 36.9314 -84.0775 69° East 467 537 35,000  Level FlightAware ADS-B
05:10AM 36.9551 -84.0006 69° East 469 540 35,000  Level FlightAware ADS-B
05:10AM 36.9783 -83.9247 69° East 466 536 35,000  Level FlightAware ADS-B
05:11AM 37.0016 -83.8489 69° East 467 537 35,000  Level FlightAware ADS-B
05:11AM 37.0325 -83.7478 69° East 470 541 35,000  Level FlightAware ADS-B
05:12AM 37.0564 -83.6691 69° East 482 555 35,000  Level FlightAware ADS-B
05:12AM 37.0827 -83.5828 69° East 468 539 35,000 420 Level FlightAware ADS-B
05:13AM 37.1153 -83.4717 69° East 472 543 35,600 840 Climbing Indianapolis Center
05:14AM 37.1622 -83.3153 69° East 473 544 36,600 660 Climbing Indianapolis Center
05:15AM 37.2097 -83.1597 69° East 473 544 37,000 60 Climbing Indianapolis Center
05:21AM 37.4589 -82.3120 69° East 468 539 37,000  Level FlightAware ADS-B
05:21AM 37.4819 -82.2325 70° East 467 537 37,000  Level FlightAware ADS-B
05:22AM 37.5159 -82.1142 70° East 469 540 37,000  Level FlightAware ADS-B
05:22AM 37.5384 -82.0360 70° East 451 519 37,000  Level FlightAware ADS-B
05:23AM 37.5619 -81.9534 70° East 472 543 37,000  Level FlightAware ADS-B
05:24AM 37.5963 -81.8331 70° East 467 537 37,000  Level FlightAware ADS-B
05:24AM 37.6187 -81.7537 70° East 469 540 37,000  Level FlightAware ADS-B
05:25AM 37.6412 -81.6742 70° East 483 556 37,000  Level FlightAware ADS-B
05:25AM 37.6632 -81.5965 70° East 479 551 37,000  Level FlightAware ADS-B
05:26AM 37.6859 -81.5162 70° East 483 556 37,000  Level FlightAware ADS-B
05:26AM 37.7078 -81.4372 71° East 466 536 37,000  Level FlightAware ADS-B
05:27AM 37.7303 -81.3570 70° East 474 545 37,000  Level FlightAware ADS-B
05:27AM 37.7526 -81.2765 71° East 466 536 37,000  Level FlightAware ADS-B
05:28AM 37.7827 -81.1689 70° East 477 549 37,000  Level FlightAware ADS-B
05:29AM 37.8180 -81.0400 71° East 37,000  Level FlightAware
05:29AM 37.8311 -80.9933 70° East 472 543 37,000  Level FlightAware ADS-B
05:30AM 37.8683 -80.8575 71° East 474 545 37,000  Level FlightAware ADS-B
05:31AM 37.8905 -80.7768 71° East 471 542 37,000  Level FlightAware ADS-B
05:32AM 37.9380 -80.6040 71° East 37,000  Level FlightAware
05:32AM 37.9680 -80.4930 71° East 37,000  Level FlightAware
05:33AM 37.9950 -80.3910 71° East 37,000  Level FlightAware
05:33AM 38.0081 -80.3419 71° East 470 541 37,000  Level Indianapolis Center
05:34AM 38.0347 -80.2503 70° East 473 544 37,000  Level Washington Center
05:35AM 38.0764 -80.0919 71° East 473 544 37,000  Level Washington Center
05:36AM 38.1119 -79.9175 75° East 474 545 37,000  Level Washington Center
05:37AM 38.1408 -79.7528 77° East 468 539 37,000  Level Washington Center
05:38AM 38.1714 -79.5906 76° East 468 539 37,000 -1,380 Level Washington Center
05:44AM 38.3250 -78.7510 76° East 27,000 -1,500 Descending FlightAware
05:44AM 38.3740 -78.6170 65° Northeast 25,300 -1,320 Descending FlightAware
05:45AM 38.4030 -78.5360 65° Northeast 24,500 -1,260 Descending FlightAware
05:46AM 38.4400 -78.4320 66° East 23,700 -1,200 Descending FlightAware
05:46AM 38.4760 -78.3310 65° Northeast 22,900 -1,200 Descending FlightAware
05:48AM 38.5610 -78.0920 65° Northeast 20,900 -1,260 Descending FlightAware
05:49AM 38.6010 -77.9780 66° East 19,900 -1,200 Descending FlightAware
05:49AM 38.6340 -77.8830 66° East 19,100 -1,200 Descending FlightAware
05:50AM 38.6470 -77.7730 81° East 18,400 -1,200 Descending FlightAware
05:51AM 38.6520 -77.6730 86° East 17,800 -1,260 Descending FlightAware
05:52AM 38.6590 -77.5640 85° East 16,700 -1,320 Descending FlightAware
05:52AM 38.6640 -77.4720 86° East 16,100 -1,260 Descending FlightAware
05:53AM 38.6700 -77.3750 85° East 15,500 -1,320 Descending FlightAware
05:54AM 38.6760 -77.2710 86° East 14,900 -1,500 Descending FlightAware
05:54AM 38.6799 -77.1962 86° East 13,900 -1,920 Descending FlightAware ADS-B
05:55AM 38.6837 -77.1326 86° East 355 409 12,900 -780 Descending FlightAware ADS-B
05:56AM 38.6910 -77.0110 86° East 11,600 -780 Descending FlightAware
05:56AM 38.6940 -76.9350 87° East 10,400 -720 Descending FlightAware
05:57AM 38.6960 -76.8750 88° East 10,000 -660 Descending FlightAware
05:57AM 38.6980 -76.8280 87° East 9,700 -660 Descending FlightAware
05:58AM 38.7000 -76.7830 87° East 9,200 -660 Descending FlightAware
05:58AM 38.7050 -76.7350 82° East 8,600 -660 Descending FlightAware
05:59AM 38.7180 -76.7080 58° Northeast 8,100 -600 Descending FlightAware
05:59AM 38.7410 -76.6590 59° Northeast 7,100 -600 Descending FlightAware
06:00AM 38.7570 -76.6260 58° Northeast 6,600 -540 Descending FlightAware
06:00AM 38.7750 -76.5840 61° Northeast 5,800 -540 Descending FlightAware
06:01AM 38.7870 -76.5560 61° Northeast 5,200 -480 Descending FlightAware
06:01AM 38.7960 -76.5400 54° Northeast 4,900 -420 Descending FlightAware
06:01AM 38.8240 -76.5270 20° North 4,600 -420 Descending FlightAware
06:02AM 38.8550 -76.5380 345° North 4,600 -360 Level FlightAware
06:02AM 38.8830 -76.5520 339° North 4,600 -420 Level FlightAware
06:02AM 38.9190 -76.5700 339° North 4,600 -420 Level FlightAware
06:03AM 38.9560 -76.5860 341° North 4,600 -420 Level FlightAware
06:03AM 38.9790 -76.6120 319° Northwest 4,600 -480 Level FlightAware
06:04AM 38.9990 -76.6550 301° West 4,600 -480 Level FlightAware
06:04AM 39.0150 -76.6910 300° West 4,200 -540 Descending FlightAware
06:05AM 39.0340 -76.7350 299° West 3,400 -480 Descending FlightAware
06:05AM 39.0500 -76.7710 300° West 2,800 -420 Descending FlightAware
06:06AM 39.0710 -76.8180 300° West 2,600 -300 Descending FlightAware
06:06AM 39.0810 -76.8480 293° West 2,600 -300 Level FlightAware
06:07AM 39.0970 -76.8900 296° West 2,500 -300 Descending FlightAware
06:07AM 39.1020 -76.8950 322° Northwest 2,400 -360 Descending FlightAware
06:07AM 39.1130 -76.9000 341° North 2,100 -300 Descending FlightAware
06:08AM 39.1440 -76.9100 346° North 1,800 -240 Descending FlightAware
06:09AM 39.1800 -76.8770 35° Northeast 1,600 -180 Descending FlightAware
06:09AM 39.1840 -76.8560 76° East 1,600 -180 Level FlightAware
06:09AM 39.1820 -76.8340 97° East 1,600 -180 Level FlightAware
06:10AM 39.1810 -76.8070 93° East 1,500 -240 Descending FlightAware
06:10AM 39.1800 -76.7940 96° East 1,300 -240 Descending FlightAware
06:11AM 39.1833 -76.7667 96° East 118 136 1,300 -420 Level Potomac TRACON
06:12AM 39.1833 -76.7167 90° East 117 135 700 -600 Descending Potomac TRACON